Decoded Metar for KAXS (ALTUS/QUARTZ MTN in OK, USA) (IATA:AXS) | Meteo·Mobile Aviation Weather
aviador You're here:

KAXS Decoded Metar

ALTUS/QUARTZ MTN in OK, USA
Report Time2018-09-18 14:55:00
UTC Time2018-09-18 15:15:38
Flight Rules mvfr MVFR
Wind240° at 07 kt
W.Decomp.*RWY 17: 3.3 kt HW 6.2 kt RCW
W.Rank240° ranks 29
Current wind is below 240° avg. (8.3)
Visibility6437 m
Phenomena:Haze
Clouds:N/A
Expected CloudBase > 2,800 ft AGL from Temp-Dew spread
CeilingNone
Temp27°C (ISA +15)
Dew Point20°C (66% RH)
Heat Index28.5°C
QNH1017 hPa
Density Alt3,323 ft
Elevation1,434 ft
Report Wrong Elevation
Raw Report
KAXS 181455Z AUTO 24007KT 4SM HZ CLR 27/20 A3004 RMK AO2
T02700201=

Extra information for KAXS:More info

Metar Taf Metar & Taf Last 4 Metars F.Rules Stats Wind Profile Meteogram Temp Stats Airport Information Weather charts Add Link Nearby VenuesMetar ALERT Operation Metar Decoded Social comments

AIRNAV info for KAXS